Terminal Aerodrome Forecast
Issued by NWS

Home | Current Version | Previous Version | Text Only | Print | Product List | Glossary On
Versions: 1 2 3 4 5 6 7 8 9 10 11 12 13 14
000
FTUS46 KSGX 012331
TAFONT
TAF
KONT 012331Z 0200/0306 26012G20KT P6SM SCT100 BKN150
     FM020200 26009KT P6SM BKN150
     FM020500 VRB04KT P6SM BKN200
     FM022000 26012KT P6SM FEW080 SCT200
     FM030400 VRB05KT P6SM FEW200=

USA.gov is the U.S. government's official web portal to all federal, state and local government web resources and services.